Jelm, WY (82063)

12:32 PM MDT on July 29, 2016 (GMT -0600)
APRSWXNET | | Change Station

Elev 7500 ft 41.15 °N, 106.00 °W | Updated 24 minutes ago

Clear
Clear
75 °F
Feels Like 77 °F
N
4
Wind Variable Wind from NE
Gusts 0.0 mph

Today
High -- | Low -- °F
--% Chance of Precip.
Yesterday
High -- | Low -- °F
Precip. -- in
Pressure 30.37 in
Visibility 10.0 miles
Clouds Clear
Heat Index 77 °F
Dew Point 47 °F
Humidity 37%
Rainfall in
Snow Depth Not available.
5:57 AM 8:22 PM
Waning Crescent, 20% visible
METAR K33V 291815Z AUTO 29004KT 10SM CLR 23/00 A3037 RMK AO2
Pressure 30.37 in
Visibility 10.0 miles
Clouds Clear
Heat Index 77 °F
Dew Point 47 °F
Humidity 37%
Rainfall in
Snow Depth Not available.
5:57 AM 8:22 PM
Waning Crescent, 20% visible
METAR K33V 291815Z AUTO 29004KT 10SM CLR 23/00 A3037 RMK AO2

10-Day Weather Forecast

Almanac

Astronomy

Jul. 29, 2016 Rise Set
Actual Time
Civil Twilight
Nautical Twilight
Astronomical Twilight
Moon
Length of Visible Light
Length of Day
Tomorrow will be .
, % of the Moon is Illuminated

Today's Extremes

State Highs State Lows

Community

WunderPhotos

Upload Photos

1,928,393 photos uploaded!

WunderBlog® & News

Nearby

Air Quality

  Air Quality AQ Index Pollutant
Not available.

Snow Depth

Station Depth Elevation

Earthquake Activity

City Distance Mag. Time & Date
Minimum magnitude displayed is 2.5.

Coastal Water Temperatures

Place Temperature

Stations

Nearby Weather Stations

Station Location Temp. Windchill Dew Point Humidity Wind Precip. Elev Updated Type
                   

Watches & Warnings

There are currently no watches in effect.